地図

経路データ

SID SEASON NUMBER BASIN SUBBASIN NAME ISO_TIME NATURE LAT LON WMO_WIND WMO_PRES WMO_AGENCY TRACK_TYPE DIST2LAND LANDFALL IFLAG USA_AGENCY USA_ATCF_ID USA_LAT USA_LON USA_RECORD USA_STATUS USA_WIND USA_PRES USA_SSHS USA_R34_NE USA_R34_SE USA_R34_SW USA_R34_NW USA_R50_NE USA_R50_SE USA_R50_SW USA_R50_NW USA_R64_NE USA_R64_SE USA_R64_SW USA_R64_NW USA_POCI USA_ROCI USA_RMW USA_EYE TOKYO_LAT TOKYO_LON TOKYO_GRADE TOKYO_WIND TOKYO_PRES TOKYO_R50_DIR TOKYO_R50_LONG TOKYO_R50_SHORT TOKYO_R30_DIR TOKYO_R30_LONG TOKYO_R30_SHORT TOKYO_LAND CMA_LAT CMA_LON CMA_CAT CMA_WIND CMA_PRES HKO_LAT HKO_LON HKO_CAT HKO_WIND HKO_PRES NEWDELHI_LAT NEWDELHI_LON NEWDELHI_GRADE NEWDELHI_WIND NEWDELHI_PRES NEWDELHI_CI NEWDELHI_DP NEWDELHI_POCI REUNION_LAT REUNION_LON REUNION_TYPE REUNION_WIND REUNION_PRES REUNION_TNUM REUNION_CI REUNION_RMW REUNION_R34_NE REUNION_R34_SE REUNION_R34_SW REUNION_R34_NW REUNION_R50_NE REUNION_R50_SE REUNION_R50_SW REUNION_R50_NW REUNION_R64_NE REUNION_R64_SE REUNION_R64_SW REUNION_R64_NW BOM_LAT BOM_LON BOM_TYPE BOM_WIND BOM_PRES BOM_TNUM BOM_CI BOM_RMW BOM_R34_NE BOM_R34_SE BOM_R34_SW BOM_R34_NW BOM_R50_NE BOM_R50_SE BOM_R50_SW BOM_R50_NW BOM_R64_NE BOM_R64_SE BOM_R64_SW BOM_R64_NW BOM_ROCI BOM_POCI BOM_EYE BOM_POS_METHOD BOM_PRES_METHOD NADI_LAT NADI_LON NADI_CAT NADI_WIND NADI_PRES WELLINGTON_LAT WELLINGTON_LON WELLINGTON_WIND WELLINGTON_PRES DS824_LAT DS824_LON DS824_STAGE DS824_WIND DS824_PRES TD9636_LAT TD9636_LON TD9636_STAGE TD9636_WIND TD9636_PRES TD9635_LAT TD9635_LON TD9635_WIND TD9635_PRES TD9635_ROCI NEUMANN_LAT NEUMANN_LON NEUMANN_CLASS NEUMANN_WIND NEUMANN_PRES MLC_LAT MLC_LON MLC_CLASS MLC_WIND MLC_PRES USA_GUST BOM_GUST BOM_GUST_PER REUNION_GUST REUNION_GUST_PER USA_SEAHGT USA_SEARAD_NE USA_SEARAD_SE USA_SEARAD_SW USA_SEARAD_NW STORM_SPEED STORM_DIR
1992231N19249 1992 70 EP MM KAY 1992-08-18 06:00:00 TS 19.1000 -111.400 25 1010 hurdat_epa main 449 449 O_____________ hurdat_epa EP131992 19.1000 -111.400 TD 25 1010 -1 13 265
1992231N19249 1992 70 EP MM KAY 1992-08-18 09:00:00 TS 19.0429 -112.090 main 487 487 P_____________ EP131992 19.0429 -112.090 TD 27 1009 -1 13 266
1992231N19249 1992 70 EP MM KAY 1992-08-18 12:00:00 TS 19.0000 -112.800 30 1009 hurdat_epa main 524 524 O_____________ hurdat_epa EP131992 19.0000 -112.800 TD 30 1009 -1 14 268
1992231N19249 1992 70 EP MM KAY 1992-08-18 15:00:00 TS 18.9848 -113.543 main 567 567 P_____________ EP131992 18.9848 -113.543 TD 30 1008 -1 14 270
1992231N19249 1992 70 EP MM KAY 1992-08-18 18:00:00 TS 19.0000 -114.300 30 1008 hurdat_epa main 624 624 O_____________ hurdat_epa EP131992 19.0000 -114.300 TD 30 1008 -1 14 273
1992231N19249 1992 70 EP MM KAY 1992-08-18 21:00:00 TS 19.0498 -115.057 main 685 678 P_____________ EP131992 19.0498 -115.057 TD 32 1007 -1 14 274
1992231N19249 1992 70 EP MM KAY 1992-08-19 00:00:00 TS 19.1000 -115.800 35 1006 hurdat_epa main 731 731 O_____________ hurdat_epa EP131992 19.1000 -115.800 TS 35 1006 0 14 272
1992231N19249 1992 70 EP MM KAY 1992-08-19 03:00:00 TS 19.1073 -116.523 main 773 773 P_____________ EP131992 19.1073 -116.523 TS 37 1004 0 13 270
1992231N19249 1992 70 EP MM KAY 1992-08-19 06:00:00 TS 19.1000 -117.200 40 1002 hurdat_epa main 817 817 O_____________ hurdat_epa EP131992 19.1000 -117.200 TS 40 1002 0 12 270
1992231N19249 1992 70 EP MM KAY 1992-08-19 09:00:00 TS 19.0995 -117.800 main 858 858 P_____________ EP131992 19.0995 -117.800 TS 42 1001 0 11 270
1992231N19249 1992 70 EP MM KAY 1992-08-19 12:00:00 TS 19.1000 -118.400 45 1001 hurdat_epa main 902 902 O_____________ hurdat_epa EP131992 19.1000 -118.400 TS 45 1001 0 12 270
1992231N19249 1992 70 EP MM KAY 1992-08-19 15:00:00 TS 19.0997 -119.070 main 954 954 P_____________ EP131992 19.0997 -119.070 TS 45 1000 0 13 270
1992231N19249 1992 70 EP MM KAY 1992-08-19 18:00:00 TS 19.1000 -119.800 45 1000 hurdat_epa main 1009 1009 O_____________ hurdat_epa EP131992 19.1000 -119.800 TS 45 1000 0 14 270
1992231N19249 1992 70 EP MM KAY 1992-08-19 21:00:00 TS 19.1073 -120.585 main 1074 1074 P_____________ EP131992 19.1073 -120.585 TS 45 1000 0 15 270
1992231N19249 1992 70 EP MM KAY 1992-08-20 00:00:00 TS 19.1000 -121.400 45 1000 hurdat_epa main 1142 1142 O_____________ hurdat_epa EP131992 19.1000 -121.400 TS 45 1000 0 15 268
1992231N19249 1992 70 EP MM KAY 1992-08-20 03:00:00 TS 19.0572 -122.200 main 1205 1205 P_____________ EP131992 19.0572 -122.200 TS 45 1000 0 15 266
1992231N19249 1992 70 EP MM KAY 1992-08-20 06:00:00 TS 19.0000 -123.000 45 1000 hurdat_epa main 1268 1268 O_____________ hurdat_epa EP131992 19.0000 -123.000 TS 45 1000 0 15 266
1992231N19249 1992 70 EP MM KAY 1992-08-20 09:00:00 TS 18.9573 -123.807 main 1322 1322 P_____________ EP131992 18.9573 -123.807 TS 45 1000 0 15 266
1992231N19249 1992 70 EP MM KAY 1992-08-20 12:00:00 TS 18.9000 -124.600 45 1001 hurdat_epa main 1387 1387 O_____________ hurdat_epa EP131992 18.9000 -124.600 TS 45 1001 0 15 264
1992231N19249 1992 70 EP MM KAY 1992-08-20 15:00:00 TS 18.7994 -125.343 main 1446 1446 P_____________ EP131992 18.7994 -125.343 TS 42 1003 0 14 262
1992231N19249 1992 70 EP MM KAY 1992-08-20 18:00:00 TS 18.7000 -126.100 40 1005 hurdat_epa main 1514 1514 O_____________ hurdat_epa EP131992 18.7000 -126.100 TS 40 1005 0 15 264
1992231N19249 1992 70 EP MM KAY 1992-08-20 21:00:00 TS 18.6424 -126.942 main 1583 1583 P_____________ EP131992 18.6424 -126.942 TS 37 1006 0 16 266
1992231N19249 1992 70 EP MM KAY 1992-08-21 00:00:00 TS 18.6000 -127.800 35 1007 hurdat_epa main 1654 1654 O_____________ hurdat_epa EP131992 18.6000 -127.800 TS 35 1007 0 16 266
1992231N19249 1992 70 EP MM KAY 1992-08-21 03:00:00 TS 18.5421 -128.608 main 1727 1727 P_____________ EP131992 18.5421 -128.608 TS 32 1007 -1 15 266
1992231N19249 1992 70 EP MM KAY 1992-08-21 06:00:00 TS 18.5000 -129.400 30 1008 hurdat_epa main 1793 1793 O_____________ hurdat_epa EP131992 18.5000 -129.400 TD 30 1008 -1 15 268
1992231N19249 1992 70 EP MM KAY 1992-08-21 09:00:00 TS 18.4998 -130.207 main 1860 1860 P_____________ EP131992 18.4998 -130.207 TD 30 1008 -1 15 270
1992231N19249 1992 70 EP MM KAY 1992-08-21 12:00:00 TS 18.5000 -131.000 30 1009 hurdat_epa main 1929 1929 O_____________ hurdat_epa EP131992 18.5000 -131.000 TD 30 1009 -1 15 268
1992231N19249 1992 70 EP MM KAY 1992-08-21 15:00:00 TS 18.4571 -131.758 main 1998 1998 P_____________ EP131992 18.4571 -131.758 TD 30 1009 -1 14 266
1992231N19249 1992 70 EP MM KAY 1992-08-21 18:00:00 TS 18.4000 -132.500 30 1009 hurdat_epa main 2066 2066 O_____________ hurdat_epa EP131992 18.4000 -132.500 TD 30 1009 -1 14 266
1992231N19249 1992 70 EP MM KAY 1992-08-21 21:00:00 TS 18.3497 -133.250 main 2134 2134 P_____________ EP131992 18.3497 -133.250 TD 27 1009 -1 14 266
1992231N19249 1992 70 EP MM KAY 1992-08-22 00:00:00 TS 18.3000 -134.000 25 1009 hurdat_epa main 2191 2117 O_____________ hurdat_epa EP131992 18.3000 -134.000 TD 25 1009 -1 14 266
1992231N19249 1992 70 EP MM KAY 1992-08-22 03:00:00 TS 18.2571 -134.742 main 2117 2035 P_____________ EP131992 18.2571 -134.742 TD 25 1009 -1 14 266
1992231N19249 1992 70 EP MM KAY 1992-08-22 06:00:00 TS 18.2000 -135.500 25 1009 hurdat_epa main 2035 1952 O_____________ hurdat_epa EP131992 18.2000 -135.500 TD 25 1009 -1 15 264
1992231N19249 1992 70 EP MM KAY 1992-08-22 09:00:00 TS 18.1074 -136.300 main 1952 1870 P_____________ EP131992 18.1074 -136.300 TD 25 1009 -1 15 263
1992231N19249 1992 70 EP MM KAY 1992-08-22 12:00:00 TS 18.0000 -137.100 25 1009 hurdat_epa main 1870 1798 O_____________ hurdat_epa EP131992 18.0000 -137.100 TD 25 1009 -1 15 262
1992231N19249 1992 70 EP MM KAY 1992-08-22 15:00:00 TS 17.8979 -137.863 main 1788 1716 P_____________ EP131992 17.8979 -137.863 TD 25 1009 -1 14 262
1992231N19249 1992 70 EP MM KAY 1992-08-22 18:00:00 TS 17.8000 -138.600 25 1009 hurdat_epa main 1716 O_____________ hurdat_epa EP131992 17.8000 -138.600 TD 25 1009 -1 14 262

IBTrACS Databaseについて

本データベースは、米国NOAAが公開する1842年以降の世界の熱帯低気圧のベストトラックデータアーカイブInternational Best Track Archive for Climate Stewardship (IBTrACS)を、ウェブで閲覧しやすい形式に変換したものです。

最終更新日:2021-11-26